Terminal Aerodrome Forecast
Issued by NWS

Home | Current Version | Previous Version | Text Only | Print | Product List | Glossary On
Versions: 1 2 3 4 5 6 7 8 9 10 11 12 13 14 15
077
FTUS43 KMQT 201844 AAB
TAFSAW
TAF AMD
KSAW 201844Z 2019/2118 18017G26KT P6SM SCT013
     FM210000 18007KT 5SM -SHRA BKN035
     FM210300 27004KT 3SM BR SCT003 BKN010
     FM210400 28004KT 3SM BR SCT003 BKN008
     FM210600 33004KT 2SM BR SCT003 SCT015
     FM211100 01005KT 1 1/2SM BR SCT003 SCT010
     FM211300 02005KT P6SM SCT020=

USA.gov is the U.S. government's official web portal to all federal, state and local government web resources and services.